Terminal Aerodrome Forecast
Issued by NWS Brownsville, TX

Home | Current Version | Previous Version | Text Only | Print | Product List | Glossary On
Versions: 1 2 3 4 5 6 7 8 9 10 11 12 13 14 15
575
FTUS44 KBRO 290838 AAA
TAFMFE
TAF AMD
KMFE 290838Z 2909/3006 12007KT P6SM SKC
     FM291400 14010KT P6SM SCT030
     FM291900 13013KT P6SM SCT050
     FM300200 13008KT P6SM FEW030=

USA.gov is the U.S. government's official web portal to all federal, state and local government web resources and services.